Ana Sayfa
METAR-TAF:

METAR-TAF

Havaalanları :

Livingstone, Zambiya

Enlem: 17-49-18S, Boylam: 025-49-22E, yükseklik: 991 m

Güncel hava durumu gözlemi

Rapor saat 06:00 UTC de 10 saat ve 45 dakika önce yapıldı.
Rüzgar doğudan 7 kt
Sıcaklık 24°C
Nem 69%
Basınç 1019 hPa
Görüş mesafesi 10 km veya daha fazla
1500 m altında bulut yok ve kümülonimbus yok

METAR: FLHN 180600Z 08007KT CAVOK 24/18 Q1019 NOSIG

Saat: 18:45 (16:45 UTC)


TAF: eksik

4.000'den fazla havaalanı için hava durumu gözlemleri ve tahminleri (METAR ve TAF raporları).

Kullanılabilir istasyonlar harita üzerinde sarı ve kırmızı noktalarla gösterilir.

İstasyonun adını görmek için fareyi noktanın üzerinde gezdirin.

Sonrasında hava gözlem ve tahminlerini görmek için tıklayın.

Haritayı değiştirmek için: yaklaştırmak için siyah artı işaretli yeşil düğmeye ve uzaklaştırmak için de eksi işaretli düğmeye hızla tıklayın; bitişik haritalar için yeşil okları kullanın.


METAR-TAF: